Flight Track Log - Related Links

Times and Time Zones

All times are in EDT time to prevent confusion due to time zone crossing. See the N3879Q flight status page for this flight to view local times or setup timezone preferences in your user account.

Time Position Orientation Groundspeed Altitude Reporting Facility
EDT Latitude Longitude Course Direction KTS MPH feet Rate Location/Type
Thu 12:36:06 AM 29.7094 -82.2397 149° Southeast 73 84 1,500  Level Jacksonville Center
Thu 12:36:42 AM 29.6989 -82.2325 149° Southeast 73 84 1,800 619 Climbing Jacksonville Center
Thu 12:37:43 AM 29.6803 -82.2353 187° South 72 83 2,500 595 Climbing Jacksonville Center
Thu 12:38:43 AM 29.6594 -82.2328 174° South 75 86 3,000 545 Climbing Jacksonville Center
Thu 12:39:44 AM 29.6383 -82.2283 170° South 77 89 3,600 590 Climbing Jacksonville Center
Thu 12:40:45 AM 29.6175 -82.2142 149° Southeast 77 89 4,200 545 Climbing Jacksonville Center
Thu 12:41:45 AM 29.6008 -82.2000 144° Southeast 80 92 4,700 446 Climbing Jacksonville Center
Thu 12:42:46 AM 29.5839 -82.1833 139° Southeast 90 104 5,100 198 Climbing Jacksonville Center
Thu 12:43:46 AM 29.5569 -82.1858 185° South 102 117 5,100 -47 Level Jacksonville Center
Thu 12:44:53 AM 29.5278 -82.1956 196° South 97 112 5,000 -47 Descending Jacksonville Center
Thu 12:45:54 AM 29.5006 -82.1958 181° South 96 110 5,000  Level Jacksonville Center
Thu 12:46:54 AM 29.4756 -82.1983 185° South 92 106 5,000 50 Level Jacksonville Center
Thu 12:47:55 AM 29.4483 -82.1986 181° South 93 107 5,100 49 Climbing Jacksonville Center
Thu 12:48:56 AM 29.4211 -82.2011 185° South 93 107 5,100 -50 Level Jacksonville Center
Thu 12:49:56 AM 29.3961 -82.2061 190° South 93 107 5,000 -50 Descending Jacksonville Center
Thu 12:50:57 AM 29.3711 -82.2086 185° South 91 105 5,000  Level Jacksonville Center
Thu 12:51:57 AM 29.3461 -82.2089 181° South 88 101 5,000  Level Jacksonville Center
Thu 12:52:58 AM 29.3211 -82.2139 190° South 89 102 5,000 49 Level Jacksonville Center
Thu 12:53:59 AM 29.2961 -82.2139 180° South 90 104 5,100 50 Climbing Jacksonville Center
Thu 12:54:59 AM 29.2689 -82.2164 185° South 91 105 5,100 -52 Level Jacksonville Center
Thu 12:55:54 AM 29.2458 -82.2192 186° South 95 109 5,000 -104 Descending Jacksonville Center
Thu 12:56:54 AM 29.2189 -82.2217 185° South 95 109 4,900  Descending Jacksonville Center
Thu 12:57:55 AM 29.1958 -82.2264 190° South 88 101 5,000 49 Climbing Jacksonville Center
Thu 12:58:56 AM 29.1708 -82.2292 186° South 86 99 5,000  Level Jacksonville Center
Thu 12:59:56 AM 29.1458 -82.2197 162° South 94 108 5,000 50 Level Jacksonville Center
Thu 01:00:57 AM 29.1206 -82.2103 162° South 95 109 5,100 50 Climbing Jacksonville Center
Thu 01:01:57 AM 29.0936 -82.2058 172° South 95 109 5,100  Level Jacksonville Center
Thu 01:02:58 AM 29.0664 -82.1942 159° South 98 113 5,100  Level Jacksonville Center
Thu 01:03:59 AM 29.0411 -82.1894 171° South 97 112 5,100  Level Jacksonville Center
Thu 01:04:59 AM 29.0142 -82.1922 185° South 96 110 5,100 -50 Level Jacksonville Center
Thu 01:06:00 AM 28.9869 -82.1900 176° South 95 109 5,000 -50 Descending Jacksonville Center
Thu 01:07:00 AM 28.9619 -82.1853 171° South 95 109 5,000  Level Jacksonville Center
Thu 01:08:01 AM 28.9347 -82.1831 176° South 94 108 5,000  Level Jacksonville Center
Thu 01:09:02 AM 28.9097 -82.1786 171° South 93 107 5,000  Level Jacksonville Center
Thu 01:11:03 AM 28.8500 -82.1667 170° South 91 105 5,000  Level Tampa TRACON
Thu 01:12:03 AM 28.8333 -82.1667 180° South 91 105 5,000 50 Level Tampa TRACON
Thu 01:13:03 AM 28.8000 -82.1667 180° South 91 105 5,100 50 Climbing Tampa TRACON
Thu 01:14:03 AM 28.7833 -82.1500 139° Southeast 91 105 5,100  Level Tampa TRACON
Thu 01:15:03 AM 28.7500 -82.1500 180° South 93 107 5,100 50 Level Tampa TRACON
Thu 01:16:03 AM 28.7333 -82.1500 180° South 95 109 5,200  Climbing Tampa TRACON
Thu 01:17:03 AM 28.7000 -82.1500 180° South 98 113 5,100 -50 Descending Tampa TRACON
Thu 01:18:03 AM 28.6833 -82.1333 139° Southeast 99 114 5,100 -50 Level Tampa TRACON
Thu 01:19:04 AM 28.6500 -82.1333 180° South 96 110 5,000 -50 Descending Tampa TRACON
Thu 01:20:04 AM 28.6167 -82.1333 180° South 96 110 5,000  Level Tampa TRACON
Thu 01:21:04 AM 28.6000 -82.1167 139° Southeast 96 110 5,000  Level Tampa TRACON
Thu 01:22:04 AM 28.5667 -82.1167 180° South 98 113 5,000  Level Tampa TRACON
Thu 01:22:58 AM 28.5500 -82.1167 180° South 97 112 5,000  Level Tampa TRACON
Thu 01:23:52 AM 28.5167 -82.1167 180° South 98 113 5,000  Level Tampa TRACON
Thu 01:24:58 AM 28.4833 -82.1000 156° South 98 113 5,000  Level Tampa TRACON
Thu 01:25:58 AM 28.4667 -82.1000 180° South 99 114 5,000  Level Tampa TRACON
Thu 01:26:58 AM 28.4333 -82.1000 180° South 98 113 5,000  Level Tampa TRACON
Thu 01:27:58 AM 28.4167 -82.0833 139° Southeast 97 112 5,000 50 Level Tampa TRACON
Thu 01:28:58 AM 28.3833 -82.0833 180° South 97 112 5,100 50 Climbing Tampa TRACON
Thu 01:29:58 AM 28.3500 -82.0833 180° South 97 112 5,100  Level Tampa TRACON
Thu 01:30:58 AM 28.3333 -82.0833 180° South 98 113 5,100  Level Tampa TRACON
Thu 01:31:58 AM 28.3000 -82.0667 156° South 98 113 5,100  Level Tampa TRACON
Thu 01:33:04 AM 28.2667 -82.0667 180° South 99 114 5,100  Level Tampa TRACON
Thu 01:34:04 AM 28.2500 -82.0667 180° South 101 116 5,100  Level Tampa TRACON
Thu 01:35:04 AM 28.2167 -82.0667 180° South 97 112 5,100 -50 Level Tampa TRACON
Thu 01:36:04 AM 28.1833 -82.0500 156° South 97 112 5,000 -50 Descending Tampa TRACON
Thu 01:37:04 AM 28.1667 -82.0500 180° South 95 109 5,000  Level Tampa TRACON
Thu 01:38:04 AM 28.1333 -82.0500 180° South 94 108 5,000  Level Tampa TRACON
Thu 01:39:04 AM 28.1167 -82.0333 139° Southeast 97 112 5,000 31 Level Tampa TRACON
Thu 01:41:17 AM 28.0572 -82.0300 177° South 64 74 5,100 31 Climbing Miami Center
Thu 01:42:16 AM 28.0283 -82.0239 169° South 95 109 5,100 -50 Level Miami Center
Thu 01:43:16 AM 28.0036 -82.0183 169° South 100 115 5,000 -50 Descending Miami Center
Thu 01:44:16 AM 27.9764 -82.0147 173° South 100 115 5,000  Level Miami Center
Thu 01:45:15 AM 27.9561 -81.9997 147° Southeast 100 115 5,000  Level Miami Center
Thu 01:46:17 AM 27.9317 -81.9844 151° Southeast 100 115 5,000  Level Miami Center
Thu 01:47:16 AM 27.9072 -81.9717 155° Southeast 100 115 5,000  Level Miami Center
Thu 01:48:17 AM 27.8847 -81.9589 153° Southeast 100 115 5,000 50 Level Miami Center
Thu 01:49:17 AM 27.8622 -81.9461 153° Southeast 100 115 5,100 50 Climbing Miami Center
Thu 01:50:17 AM 27.8375 -81.9333 155° Southeast 95 109 5,100  Level Miami Center
Thu 01:51:17 AM 27.8131 -81.9203 155° Southeast 95 109 5,100  Level Miami Center
Thu 01:52:15 AM 27.7883 -81.9053 152° Southeast 95 109 5,100  Level Miami Center
Thu 01:53:15 AM 27.7658 -81.8925 153° Southeast 95 109 5,100  Level Miami Center
Thu 01:54:15 AM 27.7453 -81.8822 156° South 90 104 5,100  Level Miami Center
Thu 01:55:16 AM 27.7189 -81.8669 153° Southeast 90 104 5,100  Level Miami Center
Thu 01:56:15 AM 27.6964 -81.8542 153° Southeast 90 104 5,100 -50 Level Miami Center
Thu 01:57:15 AM 27.6717 -81.8392 152° Southeast 90 104 5,000 -49 Descending Miami Center
Thu 01:58:18 AM 27.6533 -81.8267 149° Southeast 97 112 5,000  Level Miami Center
Thu 01:59:17 AM 27.6311 -81.8117 149° Southeast 97 112 5,000  Level Miami Center
Thu 02:00:16 AM 27.6067 -81.7917 144° Southeast 97 112 5,000  Level Miami Center
Thu 02:01:15 AM 27.5842 -81.7767 149° Southeast 97 112 5,000  Level Miami Center
Thu 02:02:17 AM 27.5617 -81.7617 149° Southeast 97 112 5,000  Level Miami Center
Thu 02:03:15 AM 27.5392 -81.7467 149° Southeast 97 112 5,000 50 Level Miami Center
Thu 02:04:17 AM 27.5167 -81.7342 154° Southeast 97 112 5,100 50 Climbing Miami Center
Thu 02:05:15 AM 27.4944 -81.7167 145° Southeast 97 112 5,100  Level Miami Center
Thu 02:06:15 AM 27.4719 -81.7017 149° Southeast 97 112 5,100  Level Miami Center
Thu 02:07:15 AM 27.4517 -81.6844 143° Southeast 97 112 5,100 -50 Level Miami Center
Thu 02:08:15 AM 27.4272 -81.6672 148° Southeast 97 112 5,000 -50 Descending Miami Center
Thu 02:09:15 AM 27.4047 -81.6522 149° Southeast 97 112 5,000  Level Miami Center
Thu 02:10:15 AM 27.3822 -81.6372 149° Southeast 97 112 5,000  Level Miami Center
Thu 02:11:16 AM 27.3600 -81.6200 145° Southeast 97 112 5,000  Level Miami Center
Thu 02:12:17 AM 27.3375 -81.6050 149° Southeast 97 112 5,000  Level Miami Center
Thu 02:13:15 AM 27.3150 -81.5900 149° Southeast 97 112 5,000  Level Miami Center
Thu 02:14:15 AM 27.2925 -81.5750 149° Southeast 97 112 5,000  Level Miami Center
Thu 02:15:16 AM 27.2678 -81.5625 156° South 97 112 5,000 49 Level Miami Center
Thu 02:16:17 AM 27.2456 -81.5428 142° Southeast 97 112 5,100 33 Climbing Miami Center
Thu 02:18:17 AM 27.2028 -81.5108 146° Southeast 97 112 5,100  Level Miami Center
Thu 02:19:16 AM 27.1781 -81.4958 152° Southeast 97 112 5,100  Level Miami Center
Thu 02:20:15 AM 27.1558 -81.4786 145° Southeast 97 112 5,100  Level Miami Center
Thu 02:21:16 AM 27.1333 -81.4614 146° Southeast 97 112 5,100 -50 Level Miami Center
Thu 02:22:15 AM 27.1108 -81.4464 149° Southeast 97 112 5,000  Descending Miami Center
Thu 02:23:15 AM 27.0883 -81.4292 146° Southeast 97 112 5,100 50 Climbing Miami Center
Thu 02:24:15 AM 27.0639 -81.4142 151° Southeast 97 112 5,100  Level Miami Center
Thu 02:25:15 AM 27.0414 -81.3994 150° Southeast 97 112 5,100  Level Miami Center
Thu 02:26:16 AM 27.0272 -81.3803 130° Southeast 97 112 5,100  Level Miami Center
Thu 02:27:17 AM 27.0050 -81.3606 142° Southeast 91 105 5,100  Level Miami Center
Thu 02:28:15 AM 26.9803 -81.3481 156° South 98 113 5,100 -51 Level Miami Center
Thu 02:29:15 AM 26.9556 -81.3356 156° South 98 113 5,000  Descending Miami Center
Thu 02:30:18 AM 26.9331 -81.3183 146° Southeast 98 113 5,100 50 Climbing Miami Center
Thu 02:31:16 AM 26.9128 -81.3036 147° Southeast 98 113 5,100 -51 Level Miami Center
Thu 02:32:15 AM 26.8861 -81.2839 147° Southeast 98 113 5,000  Descending Miami Center
Thu 02:33:15 AM 26.8617 -81.2667 148° Southeast 98 113 5,100  Climbing Miami Center
Thu 02:34:17 AM 26.8369 -81.2542 156° South 98 113 5,000 -50 Descending Miami Center
Thu 02:35:15 AM 26.8167 -81.2369 143° Southeast 98 113 5,000  Level Miami Center
Thu 02:36:15 AM 26.7900 -81.2197 150° Southeast 98 113 5,000 50 Level Miami Center
Thu 02:37:15 AM 26.7633 -81.2025 150° Southeast 98 113 5,100 49 Climbing Miami Center
Thu 02:38:18 AM 26.7389 -81.1853 148° Southeast 98 113 5,100 -50 Level Miami Center
Thu 02:39:16 AM 26.7164 -81.1706 150° Southeast 103 119 5,000 -51 Descending Miami Center
Thu 02:40:16 AM 26.6917 -81.1533 148° Southeast 103 119 5,000  Level Miami Center
Thu 02:41:15 AM 26.6653 -81.1361 150° Southeast 96 110 5,000  Level Miami Center
Thu 02:42:15 AM 26.6428 -81.1192 146° Southeast 96 110 5,000 50 Level Miami Center
Thu 02:43:15 AM 26.6181 -81.1042 152° Southeast 96 110 5,100 49 Climbing Miami Center
Thu 02:44:17 AM 26.5956 -81.0872 146° Southeast 96 110 5,100 50 Level Miami Center
Thu 02:45:15 AM 26.5711 -81.0678 145° Southeast 96 110 5,200  Climbing Miami Center
Thu 02:46:15 AM 26.5467 -81.0483 145° Southeast 101 116 5,100 -100 Descending Miami Center
Thu 02:47:15 AM 26.5178 -81.0308 152° Southeast 101 116 5,000 -50 Descending Miami Center
Thu 02:48:16 AM 26.4956 -81.0117 142° Southeast 101 116 5,000  Level Miami Center
Thu 02:49:17 AM 26.4644 -80.9967 157° South 101 116 5,000  Level Miami Center
Thu 02:50:16 AM 26.4400 -80.9794 148° Southeast 109 125 5,000  Level Miami Center
Thu 02:51:17 AM 26.4217 -80.9628 141° Southeast 109 125 5,000  Level Miami Center
Thu 02:52:18 AM 26.3928 -80.9453 152° Southeast 109 125 5,000  Level Miami Center
Thu 02:53:15 AM 26.3703 -80.9308 150° Southeast 104 120 5,000 51 Level Miami Center
Thu 02:54:15 AM 26.3436 -80.9114 147° Southeast 104 120 5,100 61 Climbing Miami Center
Thu 02:54:54 AM 26.3272 -80.9039 158° South 103 119 5,100  Level Miami Center
Thu 02:55:11 AM 26.3211 -80.8989 144° Southeast 102 117 5,100  Level Miami Center
Thu 02:56:14 AM 26.2967 -80.8794 145° Southeast 102 117 5,100  Level Miami Center
Thu 02:57:12 AM 26.2739 -80.8650 150° Southeast 104 120 5,100  Level Miami Center
Thu 02:58:16 AM 26.2475 -80.8431 143° Southeast 98 113 5,100  Level Miami Center
Thu 02:59:16 AM 26.2269 -80.8333 157° South 98 113 5,100 50 Level Miami Center
Thu 03:00:17 AM 26.2022 -80.8139 145° Southeast 98 113 5,200 51 Climbing Miami Center
Thu 03:01:14 AM 26.1714 -80.7989 156° South 104 120 5,200 -50 Level Miami Center
Thu 03:02:17 AM 26.1531 -80.7822 141° Southeast 98 113 5,100  Descending Miami Center
Thu 03:03:15 AM 26.1283 -80.7650 148° Southeast 98 113 5,200 51 Climbing Miami Center
Thu 03:04:15 AM 26.1039 -80.7458 145° Southeast 98 113 5,200 -49 Level Miami Center
Thu 03:05:18 AM 26.0750 -80.7286 152° Southeast 105 121 5,100  Descending Miami Center
Thu 03:06:18 AM 26.0483 -80.7117 150° Southeast 105 121 5,200 50 Climbing Miami Center
Thu 03:07:18 AM 26.0194 -80.7014 162° South 106 122 5,200  Level Miami Center
Thu 03:08:20 AM 25.9906 -80.6914 163° South 107 123 5,200  Level Miami Center
Thu 03:09:22 AM 25.9633 -80.6858 170° South 105 121 5,200 -143 Level Miami Center
Thu 03:10:26 AM 25.9303 -80.6733 161° South 108 124 4,900 -484 Descending Miami Center
Thu 03:11:26 AM 25.9014 -80.6631 162° South 108 124 4,200 -634 Descending Miami Center
Thu 03:12:29 AM 25.8744 -80.6575 169° South 107 123 3,600 -569 Descending Miami Center
Thu 03:13:22 AM 25.8453 -80.6497 167° South 105 121 3,100 -531 Descending Miami Center
Thu 03:14:22 AM 25.8206 -80.6397 160° South 95 109 2,600 -541 Descending Miami Center
Thu 03:15:24 AM 25.7956 -80.6344 169° South 87 100 2,000 -246 Descending Miami Center
Thu 03:16:24 AM 25.7750 -80.6244 156° South 81 93 2,100 100 Climbing Miami Center
Thu 03:17:24 AM 25.7519 -80.6214 173° South 89 102 2,200 50 Climbing Miami Center
Thu 03:18:25 AM 25.7272 -80.6183 174° South 87 100 2,200 -50 Level Miami Center
Thu 03:19:25 AM 25.7019 -80.6175 178° South 91 105 2,100 -99 Descending Miami Center
Thu 03:20:26 AM 25.6769 -80.6144 174° South 87 100 2,000  Descending Miami Center
Thu 03:21:26 AM 25.6542 -80.6092 168° South 86 99 2,100 49 Climbing Miami Center
Thu 03:22:29 AM 25.6400 -80.5972 143° Southeast 72 83 2,100  Level Miami Center
Thu 03:23:29 AM 25.6383 -80.5742 95° East 70 81 2,100 -248 Level Miami Center
Thu 03:24:30 AM 25.6347 -80.5486 99° East 83 96 1,600 -298 Descending Miami Center
Thu 03:25:30 AM 25.6353 -80.5281 88° East 91 105 1,500 -100 Descending Miami Center

Login

Don't have an account? Register now (free) for customized features, flight alerts, and more!